Time;durP1;ratioP1;P1;durP2;ratioP2;P2;SDS_P1;SDS_P2;PMS_P1;PMS_P2;Temp;Humidity;BMP_temperature;BMP_pressure;BME280_temperature;BME280_humidity;BME280_pressure;Samples;Min_cycle;Max_cycle;Signal;HPM_P1;HPM_P2
2022/11/18 00:02:19;;;;;;;16.13;6.75;;;3.80;70.70;;;;;;4136776;28;20026;-86
2022/11/18 00:04:20;;;;;;;17.10;6.93;;;3.90;70.80;;;;;;4118371;28;20038;-85
2022/11/18 00:06:24;;;;;;;13.90;7.60;;;4.00;70.60;;;;;;4117172;28;20038;-86
2022/11/18 00:08:45;;;;;;;17.40;7.60;;;3.90;70.30;;;;;;4136673;28;20116;-86
2022/11/18 00:10:45;;;;;;;15.60;6.97;;;4.00;70.30;;;;;;4135318;28;20038;-85
2022/11/18 00:15:49;;;;;;;14.60;7.57;;;3.90;70.40;;;;;;4135805;28;20041;-85
2022/11/18 00:18:09;;;;;;;15.65;6.93;;;3.90;70.30;;;;;;4137124;28;20113;-85
2022/11/18 00:20:31;;;;;;;14.60;8.18;;;3.80;70.60;;;;;;4136655;28;20069;-84
2022/11/18 00:22:52;;;;;;;13.68;7.43;;;3.70;70.80;;;;;;4136935;28;20093;-85
2022/11/18 00:25:13;;;;;;;14.73;7.28;;;3.80;70.80;;;;;;4137504;28;20030;-85
2022/11/18 00:27:13;;;;;;;17.20;6.90;;;3.80;70.50;;;;;;4121526;28;20129;-85
2022/11/18 00:29:34;;;;;;;11.32;6.40;;;3.90;70.40;;;;;;4135674;28;20038;-84
2022/11/18 00:31:55;;;;;;;12.45;6.72;;;3.90;70.90;;;;;;4126922;28;20038;-85
2022/11/18 00:34:17;;;;;;;16.30;7.03;;;3.90;70.00;;;;;;4137196;28;20114;-83
2022/11/18 00:36:27;;;;;;;13.95;7.65;;;3.90;69.70;;;;;;4118491;28;20037;-84
2022/11/18 00:38:48;;;;;;;16.23;7.00;;;3.90;69.80;;;;;;4139026;28;20037;-85
2022/11/18 00:41:14;;;;;;;17.15;8.23;;;3.90;69.90;;;;;;4123917;28;20034;-85
2022/11/18 00:43:35;;;;;;;15.70;7.50;;;4.00;70.10;;;;;;4135956;28;20035;-82
2022/11/18 00:45:56;;;;;;;18.42;8.57;;;3.90;70.10;;;;;;4136072;28;20037;-85
2022/11/18 00:47:57;;;;;;;13.57;8.05;;;3.90;70.40;;;;;;4134450;28;20141;-85
2022/11/18 00:50:18;;;;;;;17.35;8.18;;;3.90;70.70;;;;;;4135647;28;20113;-85
2022/11/18 00:52:39;;;;;;;16.73;7.70;;;3.90;70.90;;;;;;4134993;28;20038;-86
2022/11/18 00:54:59;;;;;;;12.18;6.60;;;3.90;71.00;;;;;;4136070;28;20038;-85
2022/11/18 00:57:04;;;;;;;11.25;6.53;;;3.90;71.00;;;;;;4109185;28;20074;-85
2022/11/18 00:59:25;;;;;;;14.90;6.78;;;4.00;71.00;;;;;;4133438;28;20033;-85
2022/11/18 01:01:45;;;;;;;13.80;5.85;;;4.00;71.00;;;;;;4137173;28;20034;-85
2022/11/18 01:04:06;;;;;;;19.90;7.22;;;4.00;70.90;;;;;;4136008;28;20077;-85
2022/11/18 01:06:08;;;;;;;13.13;6.68;;;4.00;70.80;;;;;;4120895;28;20028;-85
2022/11/18 01:08:29;;;;;;;16.48;7.40;;;4.00;70.70;;;;;;4136765;28;20120;-85
2022/11/18 01:10:51;;;;;;;11.13;6.45;;;4.10;70.80;;;;;;4124183;28;20105;-85
2022/11/18 01:13:19;;;;;;;10.77;5.82;;;4.10;70.70;;;;;;4135044;28;20022;-85
2022/11/18 01:15:42;;;;;;;16.65;7.45;;;4.10;70.70;;;;;;4132470;28;20062;-85
2022/11/18 01:18:02;;;;;;;11.48;6.80;;;4.10;70.80;;;;;;4133762;28;20088;-85
2022/11/18 01:20:23;;;;;;;11.45;6.68;;;4.10;70.70;;;;;;4124701;28;20041;-85
2022/11/18 01:22:44;;;;;;;17.38;7.00;;;4.10;70.80;;;;;;4131614;28;20030;-84
2022/11/18 01:25:04;;;;;;;19.67;6.85;;;4.10;70.80;;;;;;4135115;28;20112;-85
2022/11/18 01:27:25;;;;;;;15.50;7.05;;;4.10;71.20;;;;;;4136834;28;20155;-84
2022/11/18 01:29:46;;;;;;;17.70;7.57;;;4.10;71.20;;;;;;4123608;28;20042;-84
2022/11/18 01:32:06;;;;;;;17.60;7.18;;;4.10;71.30;;;;;;4137613;28;20041;-86
2022/11/18 01:34:28;;;;;;;13.70;6.70;;;4.10;71.40;;;;;;4137188;28;20025;-86
2022/11/18 01:36:51;;;;;;;11.80;6.03;;;4.10;71.40;;;;;;4124029;28;20035;-85
2022/11/18 01:39:12;;;;;;;10.90;6.13;;;4.20;71.30;;;;;;4124201;28;20034;-84
2022/11/18 01:41:32;;;;;;;11.30;5.60;;;4.20;71.10;;;;;;4132863;28;20045;-85
2022/11/18 01:44:02;;;;;;;9.80;5.60;;;4.10;70.90;;;;;;4118581;28;20041;-86
2022/11/18 01:46:26;;;;;;;18.50;6.65;;;4.20;71.00;;;;;;4122295;28;20026;-85
2022/11/18 01:49:00;;;;;;;10.60;5.80;;;4.20;70.80;;;;;;4132018;28;20045;-86
2022/11/18 01:51:29;;;;;;;14.55;5.35;;;4.10;70.70;;;;;;4132208;28;20028;-85
2022/11/18 01:53:59;;;;;;;8.50;4.38;;;4.10;70.80;;;;;;4120603;28;20041;-86
2022/11/18 01:56:05;;;;;;;12.75;5.15;;;4.20;70.90;;;;;;4135392;28;20034;-84
2022/11/18 01:58:11;;;;;;;17.02;4.88;;;4.20;70.90;;;;;;4133375;28;20069;-85
2022/11/18 02:00:12;;;;;;;13.25;5.22;;;4.20;70.90;;;;;;4139727;28;20026;-84
2022/11/18 02:02:14;;;;;;;14.07;5.35;;;4.20;71.00;;;;;;4148005;28;20019;-85
2022/11/18 02:04:15;;;;;;;18.50;6.25;;;4.30;71.10;;;;;;4131470;28;20037;-85
2022/11/18 02:06:19;;;;;;;12.20;6.22;;;4.20;71.50;;;;;;4118271;28;20077;-85
2022/11/18 02:08:21;;;;;;;11.68;5.88;;;4.20;71.50;;;;;;4114515;28;20033;-85
2022/11/18 02:10:23;;;;;;;16.80;7.38;;;4.30;71.60;;;;;;4100314;28;20059;-85
2022/11/18 02:12:24;;;;;;;13.93;5.60;;;4.20;71.70;;;;;;4115201;28;20068;-85
2022/11/18 02:14:34;;;;;;;14.13;5.90;;;4.30;71.80;;;;;;4134839;28;20129;-85
2022/11/18 02:16:55;;;;;;;14.57;5.75;;;4.30;72.00;;;;;;4103389;28;20690;-85
2022/11/18 02:19:11;;;;;;;12.50;4.57;;;4.20;72.00;;;;;;4122962;28;20027;-85
2022/11/18 02:21:43;;;;;;;14.68;6.00;;;4.20;71.90;;;;;;4142668;28;20123;-84
2022/11/18 02:24:45;;;;;;;11.55;5.57;;;4.00;71.40;;;;;;4150737;28;20034;-85
2022/11/18 02:27:37;;;;;;;14.82;5.65;;;4.00;72.10;;;;;;4135675;28;20030;-85
2022/11/18 02:30:03;;;;;;;15.02;5.82;;;3.90;71.80;;;;;;4137676;28;20033;-86
2022/11/18 02:32:31;;;;;;;18.23;5.68;;;3.90;72.10;;;;;;4123009;28;20117;-85
2022/11/18 02:35:26;;;;;;;12.82;5.78;;;4.00;72.10;;;;;;4136651;28;20033;-86
2022/11/18 02:37:46;;;;;;;17.20;6.18;;;3.90;72.30;;;;;;4139298;28;20030;-84
2022/11/18 02:40:13;;;;;;;12.68;6.40;;;3.90;72.30;;;;;;4140955;28;20045;-85
2022/11/18 02:42:36;;;;;;;13.82;5.97;;;4.00;72.30;;;;;;4135716;28;20048;-85
2022/11/18 02:45:04;;;;;;;15.75;6.32;;;4.00;72.60;;;;;;4122534;28;20101;-84
2022/11/18 02:47:27;;;;;;;23.58;7.38;;;4.20;72.30;;;;;;4125385;28;20097;-85
2022/11/18 02:49:53;;;;;;;15.13;6.43;;;4.20;72.00;;;;;;4141137;28;20034;-85
2022/11/18 02:52:15;;;;;;;10.65;5.85;;;4.20;71.70;;;;;;4138151;28;20034;-84
2022/11/18 02:54:39;;;;;;;10.50;5.60;;;4.40;71.60;;;;;;4118114;28;20103;-84
2022/11/18 02:57:01;;;;;;;12.45;5.97;;;4.30;71.00;;;;;;4128516;28;20253;-84
2022/11/18 02:59:22;;;;;;;12.38;5.80;;;4.10;70.50;;;;;;4134933;28;21493;-84
2022/11/18 03:01:43;;;;;;;13.32;6.07;;;4.20;70.70;;;;;;4137320;28;20077;-84
2022/11/18 03:04:03;;;;;;;12.50;5.55;;;4.10;70.00;;;;;;4132553;28;20061;-85
2022/11/18 03:06:36;;;;;;;15.90;5.10;;;4.20;69.80;;;;;;4138594;28;20026;-84
2022/11/18 03:09:00;;;;;;;12.82;5.40;;;4.10;69.40;;;;;;4133326;28;20049;-84
2022/11/18 03:11:27;;;;;;;11.70;5.57;;;4.20;69.70;;;;;;4117862;28;20034;-86
2022/11/18 03:14:12;;;;;;;15.75;5.72;;;4.20;69.70;;;;;;4135542;28;20437;-84
2022/11/18 03:16:36;;;;;;;;;;;4.30;69.70;;;;;;4139908;28;20104;-84
2022/11/18 03:19:08;;;;;;;14.43;6.72;;;4.30;69.50;;;;;;4132462;28;20152;-85
2022/11/18 03:21:32;;;;;;;11.73;5.75;;;4.40;69.20;;;;;;4118515;28;20096;-85
2022/11/18 03:23:46;;;;;;;12.23;5.20;;;4.40;69.10;;;;;;4118262;28;21263;-85
2022/11/18 03:26:29;;;;;;;12.07;6.05;;;4.40;69.00;;;;;;4134951;28;20510;-85
2022/11/18 03:28:36;;;;;;;12.93;5.30;;;4.40;69.10;;;;;;4131251;28;20434;-85
2022/11/18 03:30:42;;;;;;;16.75;6.40;;;4.40;68.90;;;;;;4103565;28;20395;-85
2022/11/18 03:32:50;;;;;;;16.17;6.55;;;4.40;68.70;;;;;;4120958;28;20545;-85
2022/11/18 03:35:02;;;;;;;14.68;6.20;;;4.40;68.40;;;;;;4120382;28;20030;-86
2022/11/18 03:37:06;;;;;;;13.82;5.78;;;4.40;68.10;;;;;;4104347;28;20023;-86
2022/11/18 03:39:11;;;;;;;13.35;5.18;;;4.40;67.80;;;;;;4134412;28;20572;-84
2022/11/18 03:41:15;;;;;;;9.32;5.30;;;4.40;67.90;;;;;;4131130;28;20057;-86
2022/11/18 03:43:21;;;;;;;16.88;5.70;;;4.40;67.70;;;;;;4105094;28;20106;-86
2022/11/18 03:45:26;;;;;;;12.98;5.90;;;4.30;67.30;;;;;;4126280;28;20164;-85
2022/11/18 03:47:35;;;;;;;19.08;6.57;;;4.30;67.30;;;;;;4117596;28;20117;-85
2022/11/18 03:49:42;;;;;;;14.80;6.03;;;4.20;67.20;;;;;;4120067;28;20065;-85
2022/11/18 03:51:52;;;;;;;22.02;5.97;;;4.20;67.30;;;;;;4139746;28;20621;-84
2022/11/18 03:54:04;;;;;;;19.00;5.88;;;4.20;67.30;;;;;;4120535;28;20449;-85
2022/11/18 03:56:14;;;;;;;14.77;5.03;;;4.20;67.20;;;;;;4136233;28;20038;-86
2022/11/18 03:58:41;;;;;;;10.77;5.22;;;4.20;67.00;;;;;;4131914;28;20026;-84
2022/11/18 04:00:46;;;;;;;16.45;6.20;;;4.20;66.70;;;;;;4101553;28;20058;-84
2022/11/18 04:02:49;;;;;;;20.63;6.43;;;4.10;66.30;;;;;;4120946;28;20039;-85
2022/11/18 04:05:11;;;;;;;11.90;5.72;;;4.10;66.00;;;;;;4121207;28;20038;-86
2022/11/18 04:07:43;;;;;;;13.18;5.47;;;4.10;65.80;;;;;;4120081;28;20097;-86
2022/11/18 04:10:21;;;;;;;13.55;5.32;;;4.00;64.80;;;;;;4134625;28;20038;-85
2022/11/18 04:13:13;;;;;;;12.70;5.18;;;4.00;64.60;;;;;;4136548;28;20041;-86
2022/11/18 04:15:39;;;;;;;13.32;4.95;;;3.90;63.90;;;;;;4122827;28;20162;-85
2022/11/18 04:18:00;;;;;;;14.50;4.78;;;3.90;64.20;;;;;;4126461;28;20034;-85
2022/11/18 04:20:21;;;;;;;14.90;4.80;;;3.90;64.20;;;;;;4134531;28;20491;-85
2022/11/18 04:22:42;;;;;;;9.75;4.35;;;3.90;64.10;;;;;;4134706;28;20029;-85
2022/11/18 04:25:03;;;;;;;12.80;4.72;;;3.90;64.50;;;;;;4121135;28;20041;-84
2022/11/18 04:27:24;;;;;;;11.80;4.80;;;3.90;64.20;;;;;;4136280;28;20037;-84
2022/11/18 04:29:44;;;;;;;17.15;5.65;;;3.80;64.40;;;;;;4122993;28;20525;-85
2022/11/18 04:31:45;;;;;;;10.32;4.82;;;3.80;64.60;;;;;;4133238;28;20026;-84
2022/11/18 04:34:05;;;;;;;17.23;5.03;;;3.80;64.90;;;;;;4120345;28;20041;-84
2022/11/18 04:36:26;;;;;;;9.95;4.32;;;3.80;65.80;;;;;;4133661;28;20034;-85
2022/11/18 04:38:47;;;;;;;9.43;4.70;;;3.80;65.30;;;;;;4135502;28;20030;-85
2022/11/18 04:41:07;;;;;;;15.68;4.82;;;3.80;65.40;;;;;;4126212;28;20039;-84
2022/11/18 04:43:29;;;;;;;10.40;4.97;;;3.80;65.40;;;;;;4130101;28;20050;-84
2022/11/18 04:45:50;;;;;;;11.23;5.30;;;3.80;65.60;;;;;;4149440;28;20137;-85
2022/11/18 04:48:10;;;;;;;12.18;5.72;;;3.90;65.90;;;;;;4133591;28;20030;-84
2022/11/18 04:50:31;;;;;;;12.60;5.25;;;3.80;66.40;;;;;;4121731;28;20043;-83
2022/11/18 04:52:52;;;;;;;12.15;4.65;;;3.80;66.60;;;;;;4121410;28;20117;-85
2022/11/18 04:54:59;;;;;;;10.35;4.60;;;3.80;67.00;;;;;;4118324;28;20470;-84
2022/11/18 04:57:20;;;;;;;16.50;5.00;;;3.80;67.20;;;;;;4121831;28;20037;-85
2022/11/18 04:59:41;;;;;;;10.30;4.60;;;3.80;67.30;;;;;;4126847;28;20049;-84
2022/11/18 05:01:46;;;;;;;10.27;3.85;;;3.90;67.50;;;;;;4114140;28;20441;-85
2022/11/18 05:04:07;;;;;;;14.20;4.45;;;3.90;67.60;;;;;;4135313;28;20030;-84
2022/11/18 05:06:11;;;;;;;8.93;4.05;;;3.80;67.70;;;;;;4120165;28;20036;-86
2022/11/18 05:08:32;;;;;;;15.05;4.55;;;4.00;67.90;;;;;;4120270;28;20062;-86
2022/11/18 05:12:47;;;;;;;10.60;3.72;;;3.80;67.70;;;;;;4128591;28;20118;-87
2022/11/18 05:13:33;;;;;;;11.13;3.08;;;3.80;66.90;;;;;;4138127;28;20065;-86
2022/11/18 05:15:54;;;;;;;10.57;3.70;;;3.80;66.30;;;;;;4136988;28;20089;-88
2022/11/18 05:18:14;;;;;;;9.18;3.50;;;3.80;66.10;;;;;;4118775;28;20125;-86
2022/11/18 05:20:37;;;;;;;9.38;3.40;;;3.80;66.20;;;;;;4117822;28;20138;-87
2022/11/18 05:22:57;;;;;;;10.82;2.75;;;3.70;66.10;;;;;;4133672;28;20038;-86
2022/11/18 05:25:18;;;;;;;9.60;3.53;;;3.70;66.00;;;;;;4134700;28;20026;-87
2022/11/18 05:27:39;;;;;;;5.35;2.78;;;3.80;65.70;;;;;;4135526;28;20037;-86
2022/11/18 05:30:00;;;;;;;8.73;3.05;;;3.90;65.70;;;;;;4135263;28;20185;-87
2022/11/18 05:32:20;;;;;;;14.30;4.20;;;3.90;65.90;;;;;;4114109;28;20086;-85
2022/11/18 05:34:42;;;;;;;8.02;3.70;;;4.00;66.10;;;;;;4123607;28;20034;-85
2022/11/18 05:37:02;;;;;;;10.80;3.60;;;4.00;66.30;;;;;;4121219;28;20038;-86
2022/11/18 05:39:23;;;;;;;11.20;3.45;;;4.00;66.40;;;;;;4141962;28;20026;-85
2022/11/18 05:44:26;;;;;;;10.80;3.05;;;4.00;66.00;;;;;;4138559;28;20030;-85
2022/11/18 05:46:46;;;;;;;6.10;2.45;;;4.00;65.80;;;;;;4118077;28;20030;-85
2022/11/18 05:49:07;;;;;;;5.82;2.30;;;4.00;65.30;;;;;;4130888;28;20095;-85
2022/11/18 05:51:28;;;;;;;9.77;3.03;;;3.90;64.90;;;;;;4115264;28;20126;-85
2022/11/18 05:53:51;;;;;;;8.25;2.92;;;4.00;65.10;;;;;;4132267;28;20070;-85
2022/11/18 05:56:23;;;;;;;6.03;2.53;;;4.00;65.30;;;;;;4113176;28;20042;-84
2022/11/18 05:58:43;;;;;;;5.60;2.55;;;4.00;65.40;;;;;;4133569;28;20088;-85
2022/11/18 06:01:06;;;;;;;7.22;2.97;;;4.00;65.70;;;;;;4123375;28;20062;-84
2022/11/18 06:03:29;;;;;;;10.20;3.50;;;4.00;66.00;;;;;;4123092;28;20026;-85
2022/11/18 06:05:35;;;;;;;7.35;3.03;;;4.00;66.40;;;;;;4129653;28;20041;-85
2022/11/18 06:07:43;;;;;;;9.02;3.58;;;4.00;66.80;;;;;;4133803;28;20053;-84
2022/11/18 06:09:47;;;;;;;11.07;3.55;;;4.00;67.10;;;;;;4132923;28;20430;-85
2022/11/18 06:11:54;;;;;;;9.40;3.85;;;4.00;67.60;;;;;;4127235;28;20034;-85
2022/11/18 06:14:02;;;;;;;12.82;3.20;;;4.10;67.60;;;;;;4112818;28;20034;-86
2022/11/18 06:16:03;;;;;;;11.43;3.33;;;4.10;67.50;;;;;;4113002;28;20113;-86
2022/11/18 06:18:16;;;;;;;6.28;3.25;;;4.10;67.40;;;;;;4111830;28;20559;-85
2022/11/18 06:20:19;;;;;;;10.00;3.85;;;4.10;67.40;;;;;;4101852;28;20027;-85
2022/11/18 06:22:20;;;;;;;7.80;3.70;;;4.30;67.50;;;;;;4099368;28;20031;-85
2022/11/18 06:24:20;;;;;;;10.80;3.47;;;4.20;67.50;;;;;;4114598;28;20052;-86
2022/11/18 06:26:21;;;;;;;6.80;3.15;;;4.10;67.50;;;;;;4104672;28;20570;-86
2022/11/18 06:28:23;;;;;;;10.70;3.25;;;4.20;67.50;;;;;;4107358;28;20038;-85
2022/11/18 06:30:24;;;;;;;8.02;2.80;;;4.10;67.20;;;;;;4128926;28;20040;-85
2022/11/18 06:32:24;;;;;;;4.45;2.58;;;4.20;67.10;;;;;;4129145;28;20033;-85
2022/11/18 06:34:25;;;;;;;6.50;3.17;;;4.20;66.70;;;;;;4111782;28;20042;-86
2022/11/18 06:36:26;;;;;;;10.45;2.83;;;4.20;66.60;;;;;;4130916;28;20398;-85
2022/11/18 06:38:26;;;;;;;9.23;3.28;;;4.20;66.40;;;;;;4111058;28;20038;-85
2022/11/18 06:40:27;;;;;;;9.50;2.88;;;4.20;66.20;;;;;;4130059;28;20030;-86
2022/11/18 06:44:47;;;;;;;8.85;3.60;;;4.20;66.20;;;;;;4127994;28;20113;-85
2022/11/18 06:46:56;;;;;;;6.53;3.13;;;4.20;66.20;;;;;;4114919;28;20582;-85
2022/11/18 06:48:58;;;;;;;8.73;3.70;;;4.20;66.20;;;;;;4113328;28;20035;-86
2022/11/18 06:50:58;;;;;;;7.82;4.25;;;4.20;66.30;;;;;;4114675;28;20725;-85
2022/11/18 06:53:00;;;;;;;7.97;3.63;;;4.20;66.40;;;;;;4128019;28;20053;-85
2022/11/18 06:55:01;;;;;;;10.70;3.88;;;4.30;66.40;;;;;;4118670;28;20034;-86
2022/11/18 06:57:01;;;;;;;7.95;3.35;;;4.20;66.50;;;;;;4131919;28;20079;-85
2022/11/18 06:59:03;;;;;;;7.78;3.22;;;4.20;66.50;;;;;;4136005;28;20037;-85
2022/11/18 07:01:20;;;;;;;8.93;3.53;;;4.20;66.40;;;;;;4115424;28;20027;-86
2022/11/18 07:03:21;;;;;;;8.18;3.13;;;4.20;66.20;;;;;;4118430;28;20031;-85
2022/11/18 07:05:21;;;;;;;7.93;3.58;;;4.20;66.10;;;;;;4133969;28;20026;-85
2022/11/18 07:07:22;;;;;;;13.68;3.83;;;4.30;66.10;;;;;;4130059;28;20400;-88
2022/11/18 07:09:23;;;;;;;9.82;4.05;;;4.20;65.90;;;;;;4113649;28;20049;-86
2022/11/18 07:11:25;;;;;;;6.22;3.53;;;4.20;65.70;;;;;;4116751;28;20027;-85
2022/11/18 07:13:26;;;;;;;6.60;3.38;;;4.20;65.60;;;;;;4131918;28;20027;-85
2022/11/18 07:15:26;;;;;;;6.05;3.28;;;4.20;65.50;;;;;;4114081;28;20135;-85
2022/11/18 07:17:29;;;;;;;7.15;3.78;;;4.20;65.50;;;;;;4135421;28;20030;-84
2022/11/18 07:19:30;;;;;;;12.70;3.55;;;4.20;65.20;;;;;;4146452;28;20038;-85
2022/11/18 07:21:30;;;;;;;9.90;3.53;;;4.30;65.50;;;;;;4117027;28;20036;-85
2022/11/18 07:23:32;;;;;;;9.25;3.47;;;4.30;65.40;;;;;;4104116;28;20030;-86
2022/11/18 07:25:33;;;;;;;11.25;3.85;;;4.30;65.50;;;;;;4137554;28;20837;-85
2022/11/18 07:27:34;;;;;;;6.82;3.20;;;4.20;65.20;;;;;;4108067;28;20082;-85
2022/11/18 07:29:34;;;;;;;6.50;3.20;;;4.30;65.20;;;;;;4138447;28;20064;-85
2022/11/18 07:31:39;;;;;;;10.13;3.90;;;4.30;65.20;;;;;;4135397;28;20065;-85
2022/11/18 07:33:42;;;;;;;9.88;3.08;;;4.20;65.20;;;;;;4120360;28;20034;-84
2022/11/18 07:35:42;;;;;;;5.75;2.95;;;4.20;65.20;;;;;;4119864;28;20126;-85
2022/11/18 07:37:43;;;;;;;8.40;3.30;;;4.20;65.20;;;;;;4113581;28;20034;-85
2022/11/18 07:39:44;;;;;;;5.55;2.90;;;4.20;65.30;;;;;;4136434;28;20113;-84
2022/11/18 07:41:44;;;;;;;8.73;3.85;;;4.20;65.50;;;;;;4118785;28;20057;-84
2022/11/18 07:43:47;;;;;;;8.23;3.65;;;4.20;65.20;;;;;;4137437;28;20060;-85
2022/11/18 07:45:47;;;;;;;11.18;3.03;;;4.20;65.40;;;;;;4134780;28;20133;-85
2022/11/18 07:47:48;;;;;;;10.90;3.45;;;4.20;65.60;;;;;;4134432;28;20096;-85
2022/11/18 07:49:49;;;;;;;10.02;3.22;;;4.20;65.70;;;;;;4119132;28;20072;-85
2022/11/18 07:51:49;;;;;;;9.50;3.75;;;4.20;65.80;;;;;;4135217;28;20034;-85
2022/11/18 07:53:50;;;;;;;9.35;3.67;;;4.20;65.70;;;;;;4120252;28;20038;-85
2022/11/18 07:55:51;;;;;;;8.57;3.35;;;4.20;65.60;;;;;;4138695;28;20038;-84
2022/11/18 07:57:51;;;;;;;12.98;3.40;;;4.20;65.60;;;;;;4123541;28;20030;-85
2022/11/18 07:59:52;;;;;;;5.55;3.00;;;4.20;65.30;;;;;;4135234;28;20037;-84
2022/11/18 08:01:52;;;;;;;8.75;2.70;;;4.20;65.00;;;;;;4116143;28;20178;-85
2022/11/18 08:03:53;;;;;;;8.07;2.65;;;4.10;64.70;;;;;;4135026;28;20093;-85
2022/11/18 08:06:01;;;;;;;6.20;2.55;;;4.10;64.50;;;;;;4108015;28;20037;-84
2022/11/18 08:08:01;;;;;;;4.32;2.50;;;4.10;64.20;;;;;;4121942;28;20415;-85
2022/11/18 08:10:02;;;;;;;8.70;2.80;;;4.10;63.90;;;;;;4133845;28;20218;-85
2022/11/18 08:12:03;;;;;;;13.00;2.58;;;4.20;64.00;;;;;;4107171;28;20456;-87
2022/11/18 08:14:03;;;;;;;6.60;2.15;;;4.10;63.30;;;;;;4136319;28;20072;-85
2022/11/18 08:16:12;;;;;;;8.05;2.88;;;4.20;63.40;;;;;;4137715;28;20036;-85
2022/11/18 08:18:13;;;;;;;5.22;2.55;;;4.10;63.40;;;;;;4137464;28;20044;-85
2022/11/18 08:20:13;;;;;;;8.13;2.30;;;4.20;63.50;;;;;;4117472;28;20146;-86
2022/11/18 08:22:17;;;;;;;6.47;2.50;;;4.20;63.50;;;;;;4103150;28;20137;-85
2022/11/18 08:24:18;;;;;;;9.02;2.50;;;4.20;63.00;;;;;;4121768;28;20678;-84
2022/11/18 08:26:19;;;;;;;5.88;2.20;;;4.20;62.40;;;;;;4134104;28;20025;-86
2022/11/18 08:28:19;;;;;;;7.63;2.10;;;4.30;62.30;;;;;;4135049;28;20026;-85
2022/11/18 08:30:20;;;;;;;4.75;2.38;;;4.30;61.80;;;;;;4116879;28;20058;-86
2022/11/18 08:32:21;;;;;;;8.55;2.30;;;4.30;62.10;;;;;;4135162;28;20494;-84
2022/11/18 08:34:21;;;;;;;4.53;2.13;;;4.40;62.00;;;;;;4119250;28;20027;-87
2022/11/18 08:36:42;;;;;;;6.38;2.30;;;4.30;61.70;;;;;;4119856;28;20045;-85
2022/11/18 08:39:06;;;;;;;6.30;2.63;;;4.30;61.40;;;;;;4136198;28;20046;-85
2022/11/18 08:41:33;;;;;;;6.15;2.08;;;4.30;61.60;;;;;;4121925;28;20466;-85
2022/11/18 08:43:54;;;;;;;6.65;2.20;;;4.30;61.70;;;;;;4134097;28;20030;-86
2022/11/18 08:46:14;;;;;;;7.88;2.05;;;4.30;62.00;;;;;;4134959;28;20441;-85
2022/11/18 08:48:35;;;;;;;10.48;2.13;;;4.30;62.10;;;;;;4133469;28;20026;-85
2022/11/18 08:50:57;;;;;;;4.85;1.80;;;4.30;62.00;;;;;;4121273;28;20041;-85
2022/11/18 08:53:18;;;;;;;5.72;2.13;;;4.30;61.80;;;;;;4133938;28;20018;-84
2022/11/18 08:55:38;;;;;;;5.65;1.92;;;4.30;61.40;;;;;;4123174;28;20030;-84
2022/11/18 08:57:59;;;;;;;5.32;2.10;;;4.30;61.70;;;;;;4135303;28;20025;-85
2022/11/18 09:00:19;;;;;;;7.43;2.22;;;4.30;61.70;;;;;;4136102;28;20038;-85
2022/11/18 09:02:23;;;;;;;3.47;1.48;;;4.30;61.80;;;;;;4121187;28;20537;-83
2022/11/18 09:04:23;;;;;;;6.65;1.95;;;4.30;61.80;;;;;;4123782;28;20025;-85
2022/11/18 09:06:25;;;;;;;4.90;1.42;;;4.40;61.30;;;;;;4118919;28;20030;-85
2022/11/18 09:08:27;;;;;;;4.05;1.60;;;4.40;61.10;;;;;;4139845;28;20068;-85
2022/11/18 09:10:28;;;;;;;5.45;1.80;;;4.50;61.10;;;;;;4137966;28;20078;-84
2022/11/18 09:12:28;;;;;;;8.20;1.80;;;4.40;61.20;;;;;;4121797;28;20045;-86
2022/11/18 09:14:29;;;;;;;3.08;1.80;;;4.40;61.40;;;;;;4115777;28;20053;-85
2022/11/18 09:16:32;;;;;;;6.47;1.90;;;4.40;61.40;;;;;;4133970;28;20018;-85
2022/11/18 09:18:33;;;;;;;5.93;2.10;;;4.50;61.50;;;;;;4131825;28;20665;-85
2022/11/18 09:20:34;;;;;;;3.22;1.45;;;4.50;61.60;;;;;;4125680;28;20033;-85
2022/11/18 09:22:36;;;;;;;4.97;1.75;;;4.50;61.60;;;;;;4111555;28;20039;-85
2022/11/18 09:24:37;;;;;;;5.85;2.05;;;4.50;61.60;;;;;;4127884;28;20022;-85
2022/11/18 09:26:37;;;;;;;7.88;1.90;;;4.50;61.50;;;;;;4131892;28;20394;-85
2022/11/18 09:28:38;;;;;;;7.85;1.65;;;4.50;61.50;;;;;;4129286;28;20147;-84
2022/11/18 09:30:39;;;;;;;4.13;2.00;;;4.50;61.40;;;;;;4114578;28;20061;-85
2022/11/18 09:32:40;;;;;;;4.72;1.73;;;4.50;61.10;;;;;;4131552;28;20027;-86
2022/11/18 09:34:41;;;;;;;9.52;1.70;;;4.50;61.40;;;;;;4132144;28;20079;-85
2022/11/18 09:36:41;;;;;;;3.92;1.45;;;4.60;61.20;;;;;;4092593;28;20534;-85
2022/11/18 09:38:42;;;;;;;4.32;1.80;;;4.60;61.40;;;;;;4108137;28;20113;-85
2022/11/18 09:41:07;;;;;;;8.18;1.40;;;4.60;61.50;;;;;;4096786;28;20439;-86
2022/11/18 09:43:22;;;;;;;3.85;1.55;;;4.60;61.70;;;;;;4123169;28;20049;-85
2022/11/18 09:45:43;;;;;;;5.30;1.63;;;4.70;61.70;;;;;;4136688;28;20050;-86
2022/11/18 09:47:43;;;;;;;7.15;1.25;;;4.70;61.70;;;;;;4134089;28;20122;-84
2022/11/18 09:49:45;;;;;;;8.30;1.50;;;4.70;61.70;;;;;;4129800;28;20025;-86
2022/11/18 09:51:48;;;;;;;6.90;1.65;;;4.70;61.70;;;;;;4130680;28;20037;-84
2022/11/18 09:53:49;;;;;;;;;;;4.70;61.60;;;;;;4116506;28;20031;-85
2022/11/18 09:55:51;;;;;;;3.65;1.40;;;4.80;61.70;;;;;;4137489;28;19968;-86
2022/11/18 09:57:56;;;;;;;8.98;1.63;;;4.80;61.50;;;;;;4135131;28;20038;-84
2022/11/18 09:59:57;;;;;;;6.43;1.52;;;4.80;61.30;;;;;;4134343;28;20029;-85
2022/11/18 10:02:24;;;;;;;3.58;1.38;;;4.90;61.20;;;;;;4116387;28;20026;-85
2022/11/18 10:04:27;;;;;;;4.28;1.80;;;4.90;61.30;;;;;;4113866;28;20033;-85
2022/11/18 10:06:31;;;;;;;3.15;1.45;;;4.90;60.90;;;;;;4134263;28;20034;-85
2022/11/18 10:08:54;;;;;;;4.38;1.10;;;4.90;60.60;;;;;;4120543;28;20187;-83
2022/11/18 10:11:15;;;;;;;3.08;1.20;;;5.00;60.70;;;;;;4113488;28;20058;-86
2022/11/18 10:13:35;;;;;;;4.78;1.80;;;5.00;60.60;;;;;;4132792;28;20026;-84
2022/11/18 10:15:41;;;;;;;3.40;1.48;;;5.00;60.80;;;;;;4120451;28;20133;-84
2022/11/18 10:17:53;;;;;;;4.03;1.30;;;5.00;61.30;;;;;;4116140;28;20023;-85
2022/11/18 10:20:13;;;;;;;3.67;1.30;;;5.10;61.50;;;;;;4136927;28;20776;-85
2022/11/18 10:22:25;;;;;;;5.32;1.52;;;5.10;61.50;;;;;;4138810;28;20155;-86
2022/11/18 10:24:34;;;;;;;7.77;1.73;;;5.20;61.50;;;;;;4135241;28;20023;-85
2022/11/18 10:26:40;;;;;;;4.68;1.58;;;5.30;61.10;;;;;;4131519;28;20034;-86
2022/11/18 10:28:41;;;;;;;2.78;1.20;;;5.20;61.00;;;;;;4132763;28;20034;-84
2022/11/18 10:30:41;;;;;;;4.60;1.60;;;5.20;60.90;;;;;;4129511;28;20038;-85
2022/11/18 10:33:03;;;;;;;8.35;1.55;;;5.40;61.00;;;;;;4103030;28;20038;-85
2022/11/18 10:35:39;;;;;;;4.97;1.40;;;5.30;61.00;;;;;;4143000;28;20041;-85
2022/11/18 10:37:40;;;;;;;3.65;1.25;;;5.30;60.70;;;;;;4141464;28;20156;-85
2022/11/18 10:40:01;;;;;;;6.95;1.50;;;5.30;60.90;;;;;;4120504;28;20035;-84
2022/11/18 10:42:06;;;;;;;3.03;1.27;;;5.30;61.00;;;;;;4111266;28;20046;-83
2022/11/18 10:44:31;;;;;;;3.75;1.30;;;5.30;60.90;;;;;;4121348;28;20122;-83
2022/11/18 10:46:34;;;;;;;6.53;1.42;;;5.30;60.80;;;;;;4115681;28;20113;-85
2022/11/18 10:48:35;;;;;;;3.05;1.17;;;5.30;60.90;;;;;;4137021;28;20026;-85
2022/11/18 10:50:44;;;;;;;4.32;1.30;;;5.30;61.10;;;;;;4118368;28;20069;-85
2022/11/18 10:52:52;;;;;;;4.68;1.30;;;5.30;61.10;;;;;;4129334;28;20112;-84
2022/11/18 10:55:11;;;;;;;6.93;1.90;;;5.30;61.20;;;;;;4122515;28;20072;-84
2022/11/18 10:57:19;;;;;;;5.20;1.23;;;5.30;61.00;;;;;;4118071;28;20506;-85
2022/11/18 10:59:28;;;;;;;4.75;1.25;;;5.20;60.80;;;;;;4105648;28;20031;-85
2022/11/18 11:01:29;;;;;;;4.38;1.20;;;5.20;60.80;;;;;;4107412;28;20089;-85
2022/11/18 11:03:41;;;;;;;6.47;1.25;;;5.20;60.90;;;;;;4117775;28;20740;-85
2022/11/18 11:05:41;;;;;;;4.65;1.30;;;5.20;60.90;;;;;;4118666;28;20041;-85
2022/11/18 11:07:42;;;;;;;5.50;1.30;;;5.30;61.20;;;;;;4135286;28;20029;-85
2022/11/18 11:09:44;;;;;;;4.03;1.35;;;5.30;61.30;;;;;;4120014;28;20053;-85
2022/11/18 11:12:25;;;;;;;5.97;1.30;;;5.30;61.20;;;;;;4124075;28;20034;-85
2022/11/18 11:14:51;;;;;;;7.03;1.40;;;5.30;61.00;;;;;;4139409;28;20037;-85
2022/11/18 11:17:09;;;;;;;4.50;1.02;;;5.30;61.00;;;;;;4142110;28;20041;-86
2022/11/18 11:19:11;;;;;;;2.97;1.25;;;5.30;60.70;;;;;;4117112;28;20044;-85
2022/11/18 11:21:14;;;;;;;6.82;1.48;;;5.40;61.00;;;;;;4134830;28;20036;-86
2022/11/18 11:23:15;;;;;;;5.85;1.65;;;5.40;61.90;;;;;;4137121;28;20026;-86
2022/11/18 11:25:25;;;;;;;3.88;1.30;;;5.40;61.30;;;;;;4119755;28;20049;-87
2022/11/18 11:27:37;;;;;;;6.95;1.30;;;5.40;61.60;;;;;;4103349;28;20045;-86
2022/11/18 11:29:56;;;;;;;4.50;1.50;;;5.50;61.70;;;;;;4135738;28;20027;-87
2022/11/18 11:32:09;;;;;;;4.85;1.38;;;5.50;61.50;;;;;;4120720;28;20045;-85
2022/11/18 11:34:46;;;;;;;1.67;1.05;;;5.60;61.10;;;;;;4135431;28;20057;-86
2022/11/18 11:37:08;;;;;;;2.83;1.25;;;5.80;61.00;;;;;;4126744;28;20050;-86
2022/11/18 11:39:27;;;;;;;2.88;1.30;;;5.70;60.60;;;;;;4136155;28;20813;-86
2022/11/18 11:41:58;;;;;;;6.00;1.25;;;5.70;60.20;;;;;;4137400;28;20030;-86
2022/11/18 11:44:31;;;;;;;7.10;1.40;;;5.80;60.00;;;;;;4135966;28;20033;-85
2022/11/18 11:49:26;;;;;;;5.75;1.20;;;5.70;59.90;;;;;;4137196;28;20026;-86